sensor_id;sensor_type;location;lat;lon;timestamp;P1;durP1;ratioP1;P2;durP2;ratioP2
34146;SDS011;20423;49.448;9.056;2023-08-08T00:00:24;0.6;;;0.3;;
34146;SDS011;20423;49.448;9.056;2023-08-08T00:05:18;0.5;;;0.2;;
34146;SDS011;20423;49.448;9.056;2023-08-08T00:10:40;0.8;;;0.3;;
34146;SDS011;20423;49.448;9.056;2023-08-08T00:16:02;0.5;;;0;;
34146;SDS011;20423;49.448;9.056;2023-08-08T00:21:02;0.4;;;0;;
34146;SDS011;20423;49.448;9.056;2023-08-08T00:25:32;0.1;;;0;;
34146;SDS011;20423;49.448;9.056;2023-08-08T00:31:02;0.5;;;0;;
34146;SDS011;20423;49.448;9.056;2023-08-08T00:35:18;0.3;;;0.1;;
34146;SDS011;20423;49.448;9.056;2023-08-08T00:40:38;0.3;;;0.1;;
34146;SDS011;20423;49.448;9.056;2023-08-08T00:45:48;0.1;;;0;;
34146;SDS011;20423;49.448;9.056;2023-08-08T00:51:02;0.4;;;0.1;;
34146;SDS011;20423;49.448;9.056;2023-08-08T00:55:58;0.3;;;0.1;;
34146;SDS011;20423;49.448;9.056;2023-08-08T01:00:48;1.2;;;0.6;;
34146;SDS011;20423;49.448;9.056;2023-08-08T01:06:03;1;;;0.8;;
34146;SDS011;20423;49.448;9.056;2023-08-08T01:10:19;1.1;;;0.8;;
34146;SDS011;20423;49.448;9.056;2023-08-08T01:16:02;1.9;;;1.4;;
34146;SDS011;20423;49.448;9.056;2023-08-08T01:20:56;1.7;;;1.1;;
34146;SDS011;20423;49.448;9.056;2023-08-08T01:25:54;1.8;;;1.2;;
34146;SDS011;20423;49.448;9.056;2023-08-08T01:30:52;1.7;;;1.3;;
34146;SDS011;20423;49.448;9.056;2023-08-08T01:35:42;2;;;1.6;;
34146;SDS011;20423;49.448;9.056;2023-08-08T01:40:38;1.8;;;1.5;;
34146;SDS011;20423;49.448;9.056;2023-08-08T01:45:24;2.2;;;1.6;;
34146;SDS011;20423;49.448;9.056;2023-08-08T01:51:02;1.6;;;1.3;;
34146;SDS011;20423;49.448;9.056;2023-08-08T01:55:38;2.4;;;1.5;;
34146;SDS011;20423;49.448;9.056;2023-08-08T02:00:36;2.1;;;1.5;;
34146;SDS011;20423;49.448;9.056;2023-08-08T02:06:02;1.8;;;1.1;;
34146;SDS011;20423;49.448;9.056;2023-08-08T02:11:02;1.9;;;1.6;;
34146;SDS011;20423;49.448;9.056;2023-08-08T02:15:32;2.4;;;1.9;;
34146;SDS011;20423;49.448;9.056;2023-08-08T02:20:32;2.8;;;2.2;;
34146;SDS011;20423;49.448;9.056;2023-08-08T02:25:52;3.3;;;2.3;;
34146;SDS011;20423;49.448;9.056;2023-08-08T02:30:52;2.4;;;2.1;;
34146;SDS011;20423;49.448;9.056;2023-08-08T02:35:18;2.2;;;1.8;;
34146;SDS011;20423;49.448;9.056;2023-08-08T02:40:32;3.1;;;2.3;;
34146;SDS011;20423;49.448;9.056;2023-08-08T02:46:02;2.1;;;2;;
34146;SDS011;20423;49.448;9.056;2023-08-08T02:50:18;2.5;;;2.2;;
34146;SDS011;20423;49.448;9.056;2023-08-08T02:55:42;2.9;;;2.3;;
34146;SDS011;20423;49.448;9.056;2023-08-08T03:01:02;2.4;;;2.3;;
34146;SDS011;20423;49.448;9.056;2023-08-08T03:05:52;2.7;;;2.4;;
34146;SDS011;20423;49.448;9.056;2023-08-08T03:10:36;3.1;;;2.5;;
34146;SDS011;20423;49.448;9.056;2023-08-08T03:15:18;2.5;;;2;;
34146;SDS011;20423;49.448;9.056;2023-08-08T03:20:18;3.1;;;2.3;;
34146;SDS011;20423;49.448;9.056;2023-08-08T03:25:34;2.3;;;2.2;;
34146;SDS011;20423;49.448;9.056;2023-08-08T03:30:38;2.6;;;2.2;;
34146;SDS011;20423;49.448;9.056;2023-08-08T03:36:02;3.2;;;2.6;;
34146;SDS011;20423;49.448;9.056;2023-08-08T03:40:46;2.5;;;2;;
34146;SDS011;20423;49.448;9.056;2023-08-08T03:46:02;2.7;;;2;;
34146;SDS011;20423;49.448;9.056;2023-08-08T03:50:18;2.7;;;2.2;;
34146;SDS011;20423;49.448;9.056;2023-08-08T03:55:46;3.1;;;2.5;;
34146;SDS011;20423;49.448;9.056;2023-08-08T04:00:18;3;;;2.5;;
34146;SDS011;20423;49.448;9.056;2023-08-08T04:05:38;2.9;;;2.4;;
34146;SDS011;20423;49.448;9.056;2023-08-08T04:10:36;3;;;2.3;;
34146;SDS011;20423;49.448;9.056;2023-08-08T04:15:36;2.7;;;2.5;;
34146;SDS011;20423;49.448;9.056;2023-08-08T04:20:46;3.3;;;2.4;;
34146;SDS011;20423;49.448;9.056;2023-08-08T04:25:18;2.8;;;2.4;;
34146;SDS011;20423;49.448;9.056;2023-08-08T04:30:18;2.5;;;2.2;;
34146;SDS011;20423;49.448;9.056;2023-08-08T04:36:00;2.7;;;2.2;;
34146;SDS011;20423;49.448;9.056;2023-08-08T04:41:00;2.6;;;2.2;;
34146;SDS011;20423;49.448;9.056;2023-08-08T04:46:00;3;;;2.6;;
34146;SDS011;20423;49.448;9.056;2023-08-08T04:50:24;3;;;2.6;;
34146;SDS011;20423;49.448;9.056;2023-08-08T04:55:44;2.5;;;2.3;;
34146;SDS011;20423;49.448;9.056;2023-08-08T05:00:30;4;;;3.1;;
34146;SDS011;20423;49.448;9.056;2023-08-08T05:05:18;3.7;;;3.2;;
34146;SDS011;20423;49.448;9.056;2023-08-08T05:10:52;2.9;;;2.7;;
34146;SDS011;20423;49.448;9.056;2023-08-08T05:16:00;3.5;;;2.9;;
34146;SDS011;20423;49.448;9.056;2023-08-08T05:20:26;3.7;;;2.9;;
34146;SDS011;20423;49.448;9.056;2023-08-08T05:25:48;3.9;;;3.4;;
34146;SDS011;20423;49.448;9.056;2023-08-08T05:31:00;5.1;;;4.5;;
34146;SDS011;20423;49.448;9.056;2023-08-08T05:35:18;5.8;;;4.6;;
34146;SDS011;20423;49.448;9.056;2023-08-08T05:41:00;5.2;;;4.6;;
34146;SDS011;20423;49.448;9.056;2023-08-08T05:45:32;5.4;;;4.4;;
34146;SDS011;20423;49.448;9.056;2023-08-08T05:50:44;5.4;;;4.4;;
34146;SDS011;20423;49.448;9.056;2023-08-08T05:55:52;4.8;;;3.9;;
34146;SDS011;20423;49.448;9.056;2023-08-08T06:00:48;4.5;;;3.7;;
34146;SDS011;20423;49.448;9.056;2023-08-08T06:05:19;4.6;;;3.7;;
34146;SDS011;20423;49.448;9.056;2023-08-08T06:10:18;4;;;3.1;;
34146;SDS011;20423;49.448;9.056;2023-08-08T06:16:00;3.7;;;3.2;;
34146;SDS011;20423;49.448;9.056;2023-08-08T06:20:32;2.9;;;2.7;;
34146;SDS011;20423;49.448;9.056;2023-08-08T06:25:18;3.8;;;3.2;;
34146;SDS011;20423;49.448;9.056;2023-08-08T06:30:58;3.6;;;3.3;;
34146;SDS011;20423;49.448;9.056;2023-08-08T06:36:01;3.9;;;3.1;;
34146;SDS011;20423;49.448;9.056;2023-08-08T06:40:38;3;;;2.8;;
34146;SDS011;20423;49.448;9.056;2023-08-08T06:45:18;3.2;;;2.6;;
34146;SDS011;20423;49.448;9.056;2023-08-08T06:50:52;3.5;;;3;;
34146;SDS011;20423;49.448;9.056;2023-08-08T06:55:46;4.2;;;3.1;;
34146;SDS011;20423;49.448;9.056;2023-08-08T07:00:22;3.5;;;2.7;;
34146;SDS011;20423;49.448;9.056;2023-08-08T07:05:32;4;;;3.1;;
34146;SDS011;20423;49.448;9.056;2023-08-08T07:10:58;3.8;;;2.8;;
34146;SDS011;20423;49.448;9.056;2023-08-08T07:15:36;3.4;;;2.9;;
34146;SDS011;20423;49.448;9.056;2023-08-08T07:20:36;3.4;;;2.7;;
34146;SDS011;20423;49.448;9.056;2023-08-08T07:26:02;3;;;2.5;;
34146;SDS011;20423;49.448;9.056;2023-08-08T07:30:52;3.1;;;2.7;;
34146;SDS011;20423;49.448;9.056;2023-08-08T07:35:52;3.4;;;3.3;;
34146;SDS011;20423;49.448;9.056;2023-08-08T07:40:32;3.1;;;2.3;;
34146;SDS011;20423;49.448;9.056;2023-08-08T07:45:18;3.8;;;2.8;;
34146;SDS011;20423;49.448;9.056;2023-08-08T07:50:18;3.1;;;2.5;;
34146;SDS011;20423;49.448;9.056;2023-08-08T07:55:18;2.7;;;2.6;;
34146;SDS011;20423;49.448;9.056;2023-08-08T08:01:02;2.9;;;2.3;;
34146;SDS011;20423;49.448;9.056;2023-08-08T08:05:46;2.5;;;2.3;;
34146;SDS011;20423;49.448;9.056;2023-08-08T08:11:02;2.5;;;2.1;;
34146;SDS011;20423;49.448;9.056;2023-08-08T08:15:32;2.5;;;2.2;;
34146;SDS011;20423;49.448;9.056;2023-08-08T08:20:18;2.7;;;2.4;;
34146;SDS011;20423;49.448;9.056;2023-08-08T08:25:18;2.5;;;2;;
34146;SDS011;20423;49.448;9.056;2023-08-08T08:30:18;2.2;;;1.8;;
34146;SDS011;20423;49.448;9.056;2023-08-08T08:35:36;2.1;;;1.8;;
34146;SDS011;20423;49.448;9.056;2023-08-08T08:40:46;2.5;;;2;;
34146;SDS011;20423;49.448;9.056;2023-08-08T08:45:48;2.5;;;1.9;;
34146;SDS011;20423;49.448;9.056;2023-08-08T08:50:27;3.2;;;2.6;;
34146;SDS011;20423;49.448;9.056;2023-08-08T08:55:26;4.3;;;3.2;;
34146;SDS011;20423;49.448;9.056;2023-08-08T09:01:02;2.4;;;1.9;;
34146;SDS011;20423;49.448;9.056;2023-08-08T09:06:02;2.8;;;2.2;;
34146;SDS011;20423;49.448;9.056;2023-08-08T09:10:52;3.5;;;2.5;;
34146;SDS011;20423;49.448;9.056;2023-08-08T09:15:46;3;;;2.4;;
34146;SDS011;20423;49.448;9.056;2023-08-08T09:21:02;3.2;;;2;;
34146;SDS011;20423;49.448;9.056;2023-08-08T09:25:25;2.5;;;1.9;;
34146;SDS011;20423;49.448;9.056;2023-08-08T09:30:18;2.8;;;2.3;;
34146;SDS011;20423;49.448;9.056;2023-08-08T09:35:48;2.8;;;2.2;;
34146;SDS011;20423;49.448;9.056;2023-08-08T09:41:00;2.7;;;1.9;;
34146;SDS011;20423;49.448;9.056;2023-08-08T09:46:01;2.5;;;1.9;;
34146;SDS011;20423;49.448;9.056;2023-08-08T09:50:24;2.3;;;1.9;;
34146;SDS011;20423;49.448;9.056;2023-08-08T09:56:03;2.5;;;2;;
34146;SDS011;20423;49.448;9.056;2023-08-08T10:00:18;2.5;;;2.4;;
34146;SDS011;20423;49.448;9.056;2023-08-08T10:05:18;1.8;;;1.7;;
34146;SDS011;20423;49.448;9.056;2023-08-08T10:10:48;2.3;;;1.7;;
34146;SDS011;20423;49.448;9.056;2023-08-08T10:15:46;1.9;;;1.7;;
34146;SDS011;20423;49.448;9.056;2023-08-08T10:20:38;3;;;1.8;;
34146;SDS011;20423;49.448;9.056;2023-08-08T10:25:50;1.6;;;1.4;;
34146;SDS011;20423;49.448;9.056;2023-08-08T10:31:02;2.6;;;1.5;;
34146;SDS011;20423;49.448;9.056;2023-08-08T10:35:18;2.1;;;1.5;;
34146;SDS011;20423;49.448;9.056;2023-08-08T10:41:02;1.5;;;1.5;;
34146;SDS011;20423;49.448;9.056;2023-08-08T10:45:32;1.7;;;1.3;;
34146;SDS011;20423;49.448;9.056;2023-08-08T10:51:05;1.8;;;1.5;;
34146;SDS011;20423;49.448;9.056;2023-08-08T10:56:01;2.4;;;1.9;;
34146;SDS011;20423;49.448;9.056;2023-08-08T11:00:42;2.7;;;2.1;;
34146;SDS011;20423;49.448;9.056;2023-08-08T11:05:18;1.7;;;1.7;;
34146;SDS011;20423;49.448;9.056;2023-08-08T11:10:37;2.2;;;1.5;;
34146;SDS011;20423;49.448;9.056;2023-08-08T11:16:02;1.6;;;1.2;;
34146;SDS011;20423;49.448;9.056;2023-08-08T11:20:33;1.6;;;1.3;;
34146;SDS011;20423;49.448;9.056;2023-08-08T11:25:18;2.2;;;1.9;;
34146;SDS011;20423;49.448;9.056;2023-08-08T11:31:02;2.1;;;1.5;;
34146;SDS011;20423;49.448;9.056;2023-08-08T11:36:02;2.2;;;1.6;;
34146;SDS011;20423;49.448;9.056;2023-08-08T11:40:46;2.8;;;1.6;;
34146;SDS011;20423;49.448;9.056;2023-08-08T11:45:43;1.6;;;1.5;;
34146;SDS011;20423;49.448;9.056;2023-08-08T11:51:03;2.6;;;1.5;;
34146;SDS011;20423;49.448;9.056;2023-08-08T11:55:52;1.6;;;1.2;;
34146;SDS011;20423;49.448;9.056;2023-08-08T12:00:18;1.7;;;1.6;;
34146;SDS011;20423;49.448;9.056;2023-08-08T12:05:24;2.1;;;1.7;;
34146;SDS011;20423;49.448;9.056;2023-08-08T12:11:02;1.7;;;1.2;;
34146;SDS011;20423;49.448;9.056;2023-08-08T12:15:27;2.1;;;1.4;;
34146;SDS011;20423;49.448;9.056;2023-08-08T12:20:38;2.1;;;1.4;;
34146;SDS011;20423;49.448;9.056;2023-08-08T12:26:03;2.2;;;1.2;;
34146;SDS011;20423;49.448;9.056;2023-08-08T12:30:52;2.1;;;1.9;;
34146;SDS011;20423;49.448;9.056;2023-08-08T12:36:02;2.5;;;2;;
34146;SDS011;20423;49.448;9.056;2023-08-08T12:40:43;2.5;;;1.7;;
34146;SDS011;20423;49.448;9.056;2023-08-08T12:45:32;3.3;;;2.3;;
34146;SDS011;20423;49.448;9.056;2023-08-08T12:50:36;2.5;;;2;;
34146;SDS011;20423;49.448;9.056;2023-08-08T12:55:38;1.9;;;1.7;;
34146;SDS011;20423;49.448;9.056;2023-08-08T13:00:36;2.5;;;1.8;;
34146;SDS011;20423;49.448;9.056;2023-08-08T13:05:40;2.2;;;1.4;;
34146;SDS011;20423;49.448;9.056;2023-08-08T13:10:44;2.6;;;1.6;;
34146;SDS011;20423;49.448;9.056;2023-08-08T13:15:32;2.3;;;1.6;;
34146;SDS011;20423;49.448;9.056;2023-08-08T13:20:18;2.2;;;1.8;;
34146;SDS011;20423;49.448;9.056;2023-08-08T13:26:00;2.6;;;1.7;;
34146;SDS011;20423;49.448;9.056;2023-08-08T13:31:00;2.5;;;1.9;;
34146;SDS011;20423;49.448;9.056;2023-08-08T13:35:40;1.9;;;1.4;;
34146;SDS011;20423;49.448;9.056;2023-08-08T13:40:44;2.3;;;1.7;;
34146;SDS011;20423;49.448;9.056;2023-08-08T13:46:00;2.2;;;1.4;;
34146;SDS011;20423;49.448;9.056;2023-08-08T13:50:18;1.7;;;1.2;;
34146;SDS011;20423;49.448;9.056;2023-08-08T13:55:18;2.2;;;1.5;;
34146;SDS011;20423;49.448;9.056;2023-08-08T14:00:42;2.6;;;1.6;;
34146;SDS011;20423;49.448;9.056;2023-08-08T14:05:58;2.4;;;1.7;;
34146;SDS011;20423;49.448;9.056;2023-08-08T14:10:58;2.2;;;1.7;;
34146;SDS011;20423;49.448;9.056;2023-08-08T14:15:25;2.9;;;1.8;;
34146;SDS011;20423;49.448;9.056;2023-08-08T14:20:59;2.1;;;1.4;;
34146;SDS011;20423;49.448;9.056;2023-08-08T14:25:18;2.3;;;1.7;;
34146;SDS011;20423;49.448;9.056;2023-08-08T14:30:24;1.9;;;1.7;;
34146;SDS011;20423;49.448;9.056;2023-08-08T14:35:48;2.2;;;1.7;;
34146;SDS011;20423;49.448;9.056;2023-08-08T14:40:44;1.9;;;1.7;;
34146;SDS011;20423;49.448;9.056;2023-08-08T14:45:50;2.3;;;1.5;;
34146;SDS011;20423;49.448;9.056;2023-08-08T14:50:48;2.7;;;2;;
34146;SDS011;20423;49.448;9.056;2023-08-08T14:55:58;3;;;2.2;;
34146;SDS011;20423;49.448;9.056;2023-08-08T15:00:18;2.1;;;1.9;;
34146;SDS011;20423;49.448;9.056;2023-08-08T15:05:58;2.6;;;2;;
34146;SDS011;20423;49.448;9.056;2023-08-08T15:10:32;2.8;;;1.8;;
34146;SDS011;20423;49.448;9.056;2023-08-08T15:15:58;2.8;;;2.2;;
34146;SDS011;20423;49.448;9.056;2023-08-08T15:20:50;3.7;;;2.5;;
34146;SDS011;20423;49.448;9.056;2023-08-08T15:25:48;3.7;;;2.9;;
34146;SDS011;20423;49.448;9.056;2023-08-08T15:30:18;3;;;2.4;;
34146;SDS011;20423;49.448;9.056;2023-08-08T15:35:18;3;;;2.3;;
34146;SDS011;20423;49.448;9.056;2023-08-08T15:40:58;4.1;;;2.6;;
34146;SDS011;20423;49.448;9.056;2023-08-08T15:45:18;3.7;;;2.8;;
34146;SDS011;20423;49.448;9.056;2023-08-08T15:50:28;10.3;;;8.3;;
34146;SDS011;20423;49.448;9.056;2023-08-08T15:55:58;11.9;;;9.8;;
34146;SDS011;20423;49.448;9.056;2023-08-08T16:00:58;19.2;;;16.7;;
34146;SDS011;20423;49.448;9.056;2023-08-08T16:05:24;6.1;;;5.1;;
34146;SDS011;20423;49.448;9.056;2023-08-08T16:10:24;3.8;;;3.1;;
34146;SDS011;20423;49.448;9.056;2023-08-08T16:15:50;3.7;;;3;;
34146;SDS011;20423;49.448;9.056;2023-08-08T16:20:52;2.8;;;2.1;;
34146;SDS011;20423;49.448;9.056;2023-08-08T16:25:19;2.7;;;2;;
34146;SDS011;20423;49.448;9.056;2023-08-08T16:30:18;2.5;;;2.1;;
34146;SDS011;20423;49.448;9.056;2023-08-08T16:35:24;4.7;;;3.6;;
34146;SDS011;20423;49.448;9.056;2023-08-08T16:40:32;5.3;;;4.8;;
34146;SDS011;20423;49.448;9.056;2023-08-08T16:45:38;12;;;9.6;;
34146;SDS011;20423;49.448;9.056;2023-08-08T16:51:02;11.6;;;8.4;;
34146;SDS011;20423;49.448;9.056;2023-08-08T16:55:21;27.9;;;21.8;;
34146;SDS011;20423;49.448;9.056;2023-08-08T17:01:02;17.6;;;15;;
34146;SDS011;20423;49.448;9.056;2023-08-08T17:05:24;15.8;;;14.1;;
34146;SDS011;20423;49.448;9.056;2023-08-08T17:10:27;13.5;;;11.8;;
34146;SDS011;20423;49.448;9.056;2023-08-08T17:15:38;8.4;;;7.2;;
34146;SDS011;20423;49.448;9.056;2023-08-08T17:20:18;7;;;5.9;;
34146;SDS011;20423;49.448;9.056;2023-08-08T17:25:18;5.2;;;4.4;;
34146;SDS011;20423;49.448;9.056;2023-08-08T17:30:38;5;;;3.8;;
34146;SDS011;20423;49.448;9.056;2023-08-08T17:35:46;3.9;;;3.4;;
34146;SDS011;20423;49.448;9.056;2023-08-08T17:40:30;8.2;;;6.5;;
34146;SDS011;20423;49.448;9.056;2023-08-08T17:45:24;12.3;;;9.4;;
34146;SDS011;20423;49.448;9.056;2023-08-08T17:51:00;17.4;;;14.7;;
34146;SDS011;20423;49.448;9.056;2023-08-08T17:56:03;21.9;;;18.1;;
34146;SDS011;20423;49.448;9.056;2023-08-08T18:00:37;16.2;;;13.9;;
34146;SDS011;20423;49.448;9.056;2023-08-08T18:05:33;16.5;;;13.3;;
34146;SDS011;20423;49.448;9.056;2023-08-08T18:11:03;23.4;;;18.3;;
34146;SDS011;20423;49.448;9.056;2023-08-08T18:15:37;33.8;;;25.9;;
34146;SDS011;20423;49.448;9.056;2023-08-08T18:20:19;59.9;;;46.6;;
34146;SDS011;20423;49.448;9.056;2023-08-08T18:25:48;16.5;;;14.1;;
34146;SDS011;20423;49.448;9.056;2023-08-08T18:31:02;6.9;;;6.1;;
34146;SDS011;20423;49.448;9.056;2023-08-08T18:36:03;11;;;8.1;;
34146;SDS011;20423;49.448;9.056;2023-08-08T18:40:33;10.2;;;8.4;;
34146;SDS011;20423;49.448;9.056;2023-08-08T18:46:02;6.2;;;5.6;;
34146;SDS011;20423;49.448;9.056;2023-08-08T18:50:24;6;;;5.1;;
34146;SDS011;20423;49.448;9.056;2023-08-08T18:55:39;6.8;;;5.3;;
34146;SDS011;20423;49.448;9.056;2023-08-08T19:00:49;6.8;;;5.7;;
34146;SDS011;20423;49.448;9.056;2023-08-08T19:05:27;6.2;;;5.1;;
34146;SDS011;20423;49.448;9.056;2023-08-08T19:10:53;5.4;;;4.6;;
34146;SDS011;20423;49.448;9.056;2023-08-08T19:15:21;6.7;;;5.3;;
34146;SDS011;20423;49.448;9.056;2023-08-08T19:21:03;7.3;;;5.9;;
34146;SDS011;20423;49.448;9.056;2023-08-08T19:25:19;8.1;;;7;;
34146;SDS011;20423;49.448;9.056;2023-08-08T19:30:31;9.7;;;7.7;;
34146;SDS011;20423;49.448;9.056;2023-08-08T19:35:38;10.1;;;8.3;;
34146;SDS011;20423;49.448;9.056;2023-08-08T19:41:03;8.9;;;7.4;;
34146;SDS011;20423;49.448;9.056;2023-08-08T19:45:55;8.8;;;7.3;;
34146;SDS011;20423;49.448;9.056;2023-08-08T19:50:27;9.4;;;7.3;;
34146;SDS011;20423;49.448;9.056;2023-08-08T19:55:19;10.9;;;9.4;;
34146;SDS011;20423;49.448;9.056;2023-08-08T20:00:25;11.2;;;9.8;;
34146;SDS011;20423;49.448;9.056;2023-08-08T20:06:03;10.4;;;9;;
34146;SDS011;20423;49.448;9.056;2023-08-08T20:10:19;8.3;;;6.4;;
34146;SDS011;20423;49.448;9.056;2023-08-08T20:15:37;7.7;;;6.2;;
34146;SDS011;20423;49.448;9.056;2023-08-08T20:21:03;6.9;;;5.5;;
34146;SDS011;20423;49.448;9.056;2023-08-08T20:26:03;6.5;;;5.1;;
34146;SDS011;20423;49.448;9.056;2023-08-08T20:30:25;5.9;;;5.2;;
34146;SDS011;20423;49.448;9.056;2023-08-08T20:35:25;5.6;;;5;;
34146;SDS011;20423;49.448;9.056;2023-08-08T20:40:57;6.2;;;5.1;;
34146;SDS011;20423;49.448;9.056;2023-08-08T20:45:55;4.4;;;3.8;;
34146;SDS011;20423;49.448;9.056;2023-08-08T20:50:39;5.8;;;4.5;;
34146;SDS011;20423;49.448;9.056;2023-08-08T20:55:33;4.9;;;4.3;;
34146;SDS011;20423;49.448;9.056;2023-08-08T21:01:03;5.2;;;4.5;;
34146;SDS011;20423;49.448;9.056;2023-08-08T21:05:39;5.7;;;4.4;;
34146;SDS011;20423;49.448;9.056;2023-08-08T21:10:33;5.1;;;4;;
34146;SDS011;20423;49.448;9.056;2023-08-08T21:16:03;4.8;;;3.9;;
34146;SDS011;20423;49.448;9.056;2023-08-08T21:20:47;5.7;;;4.5;;
34146;SDS011;20423;49.448;9.056;2023-08-08T21:25:37;6.7;;;5.2;;
34146;SDS011;20423;49.448;9.056;2023-08-08T21:30:27;5.8;;;4.6;;
34146;SDS011;20423;49.448;9.056;2023-08-08T21:35:19;5.5;;;4;;
34146;SDS011;20423;49.448;9.056;2023-08-08T21:40:33;4.5;;;4;;
34146;SDS011;20423;49.448;9.056;2023-08-08T21:45:45;4;;;3.7;;
34146;SDS011;20423;49.448;9.056;2023-08-08T21:51:03;3.8;;;3.2;;
34146;SDS011;20423;49.448;9.056;2023-08-08T21:55:47;3.8;;;3.4;;
34146;SDS011;20423;49.448;9.056;2023-08-08T22:01:05;4.4;;;3.3;;
34146;SDS011;20423;49.448;9.056;2023-08-08T22:05:33;4;;;3.4;;
34146;SDS011;20423;49.448;9.056;2023-08-08T22:10:27;4.3;;;3.2;;
34146;SDS011;20423;49.448;9.056;2023-08-08T22:15:31;3.3;;;2.9;;
34146;SDS011;20423;49.448;9.056;2023-08-08T22:20:33;4.6;;;3.7;;
34146;SDS011;20423;49.448;9.056;2023-08-08T22:25:55;4.4;;;3.5;;
34146;SDS011;20423;49.448;9.056;2023-08-08T22:30:29;3.5;;;2.8;;
34146;SDS011;20423;49.448;9.056;2023-08-08T22:35:47;4.3;;;3.4;;
34146;SDS011;20423;49.448;9.056;2023-08-08T22:40:33;4.5;;;3.5;;
34146;SDS011;20423;49.448;9.056;2023-08-08T22:45:19;3.1;;;2.7;;
34146;SDS011;20423;49.448;9.056;2023-08-08T22:51:03;5.3;;;4.4;;
34146;SDS011;20423;49.448;9.056;2023-08-08T22:56:03;7.4;;;6.1;;
34146;SDS011;20423;49.448;9.056;2023-08-08T23:00:25;8.1;;;6.4;;
34146;SDS011;20423;49.448;9.056;2023-08-08T23:05:47;8.6;;;6.7;;
34146;SDS011;20423;49.448;9.056;2023-08-08T23:11:05;8.7;;;6.6;;
34146;SDS011;20423;49.448;9.056;2023-08-08T23:15:25;7.7;;;6.4;;
34146;SDS011;20423;49.448;9.056;2023-08-08T23:20:25;7.5;;;5.6;;
34146;SDS011;20423;49.448;9.056;2023-08-08T23:25:49;5.3;;;4.9;;
34146;SDS011;20423;49.448;9.056;2023-08-08T23:31:03;5.9;;;4.6;;
34146;SDS011;20423;49.448;9.056;2023-08-08T23:36:03;5;;;3.9;;
34146;SDS011;20423;49.448;9.056;2023-08-08T23:40:19;5;;;4.6;;
34146;SDS011;20423;49.448;9.056;2023-08-08T23:46:01;5.4;;;4.4;;
34146;SDS011;20423;49.448;9.056;2023-08-08T23:50:33;5.5;;;4.5;;
34146;SDS011;20423;49.448;9.056;2023-08-08T23:55:37;6.4;;;5.3;;
